Portada
METAR-TAF:

METAR-TAF

Aeroports :

Kermanxah, Iran

latitud: 34-16N, longitud: 047-07E, altitud: 1320 m

Observació

L'informe es va fer fa 1 hora i 19 minuts, a les 00:54 UTC
Vent 10 kt del Sud/Sud-Oest
Temperatura 19°C
Humitat 28%
Pressió 1013 hPa
Visibilitat 10 km o més
sense núvols per sota de 1500 mi sense presència de cumulonimbus.

METAR: OICC 210054Z 20010KT CAVOK 19/M00 Q1012 A2990

Hora: 06:43 (02:13 UTC)

Pronòstic

L'informe es va fer fa 3 hores i 3 minuts, a les 23:10 UTC
Pronòstic vàlid del 21 a les 00 UTC al 21 a les 09 UTC
Vent 7 kt del Oest
Visibilitat: 8000 m
Escasses núvols a una alçada de 4000 ft
Temporalment
l' 21 a les 06 UTC al 21 a les 09 UTC
Vent 15 kt del Oest/Nord-Oest

TAF: OICC 202310Z 2100/2109 26007KT 8000 FEW040 TEMPO 2106/2109 30015KT

Observacions i pronòstics meteorològics de més de 4000 aeroports (METAR i TAF).

Les estacions disponibles són els punts grocs i vermells al mapa.

Posi el ratolí al punt desitjat per veure el nom de l'estació.

Feu clic per veure les observacions i els pronòstics meteorològics.

Per canviar el mapa: feu clic els botons verds amb una creu de color negre per apropar; al botó verd amb un guió per allunyar la imatge; o en les fletxes verdes per a mapes adjacents.


METAR-TAF: